Time;durP1;ratioP1;P1;durP2;ratioP2;P2;SDS_P1;SDS_P2;PMS_P1;PMS_P2;Temp;Humidity;BMP_temperature;BMP_pressure;BME280_temperature;BME280_humidity;BME280_pressure;Samples;Min_cycle;Max_cycle;Signal;HPM_P1;HPM_P2
2022/05/24 00:00:07;;;;;;;9.77;3.30;;;;;;;9.83;28.79;98657.84;5031971;28;20040;-54
2022/05/24 00:02:33;;;;;;;6.40;3.10;;;;;;;9.80;29.39;98663.50;5030498;28;20388;-50
2022/05/24 00:04:58;;;;;;;6.45;3.05;;;;;;;9.79;29.33;98656.47;5030640;28;20183;-53
2022/05/24 00:07:24;;;;;;;7.30;3.00;;;;;;;9.80;29.22;98654.66;5030709;28;20029;-52
2022/05/24 00:09:49;;;;;;;8.75;3.00;;;;;;;9.82;29.41;98658.03;5031666;28;20029;-54
2022/05/24 00:12:15;;;;;;;9.10;3.28;;;;;;;9.80;29.34;98655.47;5031288;28;20029;-54
2022/05/24 00:17:24;;;;;;;6.53;3.38;;;;;;;9.75;29.26;98645.22;5031350;28;20030;-51
2022/05/24 00:19:50;;;;;;;5.95;2.72;;;;;;;9.75;29.08;98655.09;5031276;28;20176;-55
2022/05/24 00:22:16;;;;;;;6.47;2.78;;;;;;;9.75;29.53;98666.59;5031309;28;20037;-54
2022/05/24 00:24:42;;;;;;;5.63;2.90;;;;;;;9.73;29.52;98663.25;5031528;28;20032;-54
2022/05/24 00:27:07;;;;;;;5.10;2.58;;;;;;;9.75;29.41;98668.44;5031457;28;20045;-54
2022/05/24 00:29:33;;;;;;;7.28;2.60;;;;;;;9.75;29.46;98669.28;5031069;28;20060;-54
2022/05/24 00:31:59;;;;;;;6.40;2.63;;;;;;;9.79;29.59;98666.34;5030772;28;20042;-52
2022/05/24 00:34:25;;;;;;;6.93;3.35;;;;;;;9.74;29.03;98658.75;5031189;28;20029;-51
2022/05/24 00:36:51;;;;;;;4.78;2.53;;;;;;;9.79;28.64;98667.16;5031454;28;20032;-52
2022/05/24 00:39:16;;;;;;;5.63;2.35;;;;;;;9.77;28.89;98669.16;5030858;28;20033;-52
2022/05/24 00:41:50;;;;;;;6.43;2.30;;;;;;;9.80;29.08;98674.19;5030841;28;20037;-55
2022/05/24 00:44:30;;;;;;;4.53;2.30;;;;;;;9.85;28.70;98671.09;5031065;28;20041;-50
2022/05/24 00:47:01;;;;;;;6.88;2.50;;;;;;;9.66;28.60;98639.94;5030964;28;20033;-53
2022/05/24 00:49:31;;;;;;;7.85;2.80;;;;;;;9.82;29.37;98676.72;5030635;28;20034;-55
2022/05/24 00:52:09;;;;;;;3.90;2.70;;;;;;;9.83;28.87;98676.56;5030688;28;20037;-51
2022/05/24 00:54:34;;;;;;;7.78;3.38;;;;;;;9.75;29.83;98669.28;5030303;28;20060;-54
2022/05/24 00:57:21;;;;;;;8.50;2.53;;;;;;;9.79;29.15;98669.84;5030877;28;20120;-48
2022/05/24 00:59:51;;;;;;;5.75;2.47;;;;;;;9.75;29.55;98663.09;5030414;28;20472;-53
2022/05/24 01:02:16;;;;;;;4.40;2.83;;;;;;;9.74;29.83;98670.28;5011079;28;20108;-56
2022/05/24 01:04:42;;;;;;;5.10;2.67;;;;;;;9.71;29.88;98667.91;5011090;28;20164;-53
2022/05/24 01:07:08;;;;;;;5.47;2.33;;;;;;;9.56;29.57;98638.13;5011081;28;20565;-54
2022/05/24 01:09:40;;;;;;;6.93;2.63;;;;;;;9.75;29.77;98665.78;5022499;28;20033;-50
2022/05/24 01:12:11;;;;;;;6.10;2.58;;;;;;;9.76;29.27;98662.13;5030346;28;20037;-55
2022/05/24 01:14:37;;;;;;;8.35;2.45;;;;;;;9.72;29.76;98672.25;5030716;28;20049;-54
2022/05/24 01:17:03;;;;;;;6.45;2.70;;;;;;;9.74;29.38;98667.59;5030462;28;20053;-53
2022/05/24 01:19:43;;;;;;;6.53;2.72;;;;;;;9.82;29.56;98666.03;5030631;28;20361;-56
2022/05/24 01:22:15;;;;;;;8.57;2.92;;;;;;;9.82;29.59;98661.50;5030181;28;20543;-51
2022/05/24 01:25:12;;;;;;;3.65;2.58;;;;;;;9.87;29.23;98664.59;5030459;28;20492;-52
2022/05/24 01:27:39;;;;;;;4.20;2.75;;;;;;;9.78;29.81;98668.16;5032013;28;20029;-53
2022/05/24 01:30:06;;;;;;;8.23;3.15;;;;;;;9.76;29.65;98673.63;5034107;28;20495;-47
2022/05/24 01:38:03;;;;;;;4.82;2.55;;;;;;;9.76;29.99;98672.81;5034416;28;20033;-49
2022/05/24 01:40:30;;;;;;;4.75;2.40;;;;;;;9.77;29.89;98682.50;5034121;28;20029;-54
2022/05/24 01:42:55;;;;;;;6.78;2.40;;;;;;;9.77;29.95;98674.50;5034057;28;20034;-54
2022/05/24 01:45:27;;;;;;;5.32;2.60;;;;;;;9.84;29.92;98678.25;5034927;28;20032;-52
2022/05/24 01:48:02;;;;;;;5.00;2.53;;;;;;;9.88;30.14;98682.31;5034699;28;20045;-54
2022/05/24 01:50:28;;;;;;;7.70;2.45;;;;;;;9.81;30.49;98683.91;5034818;28;20057;-54
2022/05/24 01:52:58;;;;;;;10.43;2.55;;;;;;;9.82;30.19;98682.91;5034884;28;20457;-52
2022/05/24 01:55:40;;;;;;;6.07;2.40;;;;;;;9.88;29.78;98682.31;5034485;28;20052;-55
2022/05/24 01:58:10;;;;;;;4.97;2.35;;;;;;;9.85;29.74;98677.25;5033697;28;20436;-50
2022/05/24 02:00:36;;;;;;;5.30;2.72;;;;;;;9.88;29.67;98684.97;5034004;28;20180;-48
2022/05/24 02:03:02;;;;;;;3.53;2.20;;;;;;;9.91;29.11;98676.69;5032398;28;20444;-49
2022/05/24 02:05:39;;;;;;;5.28;2.00;;;;;;;10.04;28.67;98681.69;5034224;28;20839;-50
2022/05/24 02:08:07;;;;;;;8.93;2.58;;;;;;;10.00;28.58;98671.44;5033074;28;20042;-51
2022/05/24 02:11:03;;;;;;;4.82;2.50;;;;;;;10.12;28.65;98672.91;5033524;28;20025;-49
2022/05/24 02:13:34;;;;;;;;;;;;;;;10.50;27.91;98669.31;5033572;28;20043;-49
2022/05/24 02:16:03;;;;;;;7.28;2.08;;;;;;;10.39;27.70;98679.25;5033613;28;19912;-52
2022/05/24 02:18:30;;;;;;;3.58;1.98;;;;;;;10.40;27.56;98674.72;5033666;28;20028;-51
2022/05/24 02:20:56;;;;;;;6.07;2.08;;;;;;;10.43;27.69;98671.75;5033570;28;20026;-51
2022/05/24 02:23:21;;;;;;;2.88;2.17;;;;;;;10.49;27.66;98676.53;5033557;28;20133;-50
2022/05/24 02:25:57;;;;;;;3.42;2.10;;;;;;;10.63;27.24;98680.50;5033319;28;20037;-51
2022/05/24 02:28:30;;;;;;;4.32;1.95;;;;;;;10.62;26.40;98679.66;5033080;28;20122;-48
2022/05/24 02:31:01;;;;;;;5.00;1.73;;;;;;;10.66;26.12;98695.41;5033478;28;20025;-50
2022/05/24 02:33:27;;;;;;;4.10;1.65;;;;;;;10.67;25.68;98681.88;5033903;28;20033;-49
2022/05/24 02:35:53;;;;;;;5.40;2.22;;;;;;;10.74;25.74;98688.28;5032979;28;20033;-50
2022/05/24 02:38:19;;;;;;;4.63;1.70;;;;;;;10.82;25.36;98689.34;5032135;28;20099;-51
2022/05/24 02:43:29;;;;;;;5.10;1.48;;;;;;;10.96;25.24;98680.78;5033365;28;20441;-51
2022/05/24 02:45:55;;;;;;;5.28;1.55;;;;;;;11.11;24.66;98688.28;5033078;28;20033;-53
2022/05/24 02:48:21;;;;;;;2.67;1.50;;;;;;;11.21;24.16;98678.31;5032302;28;20392;-52
2022/05/24 02:50:46;;;;;;;3.25;1.70;;;;;;;11.32;24.47;98687.94;5032906;28;20117;-50
2022/05/24 02:53:12;;;;;;;4.65;1.65;;;;;;;11.43;25.07;98682.28;5032712;28;20112;-51
2022/05/24 02:55:37;;;;;;;11.77;2.13;;;;;;;11.49;24.62;98684.38;5032927;28;20128;-49
2022/05/24 02:58:03;;;;;;;2.97;1.90;;;;;;;11.59;24.62;98676.22;5032275;28;20029;-49
2022/05/24 03:00:29;;;;;;;4.32;1.70;;;;;;;11.67;24.78;98671.88;5033180;28;20025;-49
2022/05/24 03:02:55;;;;;;;8.73;1.90;;;;;;;11.74;24.52;98667.56;5031515;28;20025;-51
2022/05/24 03:05:22;;;;;;;4.47;1.80;;;;;;;11.88;24.89;98668.78;5032943;28;20445;-54
2022/05/24 03:10:33;;;;;;;6.22;1.98;;;;;;;12.16;24.81;98672.13;5013297;28;20473;-51
2022/05/24 03:15:44;;;;;;;9.77;2.10;;;;;;;12.28;25.06;98658.41;5032417;28;20050;-53
2022/05/24 03:18:12;;;;;;;7.68;2.10;;;;;;;12.39;25.88;98679.59;5031795;28;20037;-54
2022/05/24 03:20:38;;;;;;;11.10;2.60;;;;;;;12.46;26.00;98680.59;5031734;28;20397;-52
2022/05/24 03:23:04;;;;;;;5.85;2.60;;;;;;;12.49;26.32;98676.75;5031259;28;20057;-52
2022/05/24 03:25:32;;;;;;;8.30;2.72;;;;;;;12.48;26.83;98681.28;5031723;28;20053;-50
2022/05/24 03:27:58;;;;;;;3.55;2.63;;;;;;;12.39;27.28;98684.09;5032245;28;20473;-52
2022/05/24 03:30:25;;;;;;;5.25;2.55;;;;;;;12.26;27.76;98677.38;5032289;28;20083;-54
2022/05/24 03:32:51;;;;;;;10.80;2.67;;;;;;;12.17;27.51;98681.00;5032074;28;20048;-51
2022/05/24 03:35:16;;;;;;;8.05;3.10;;;;;;;12.11;27.79;98681.66;5031748;28;20067;-54
2022/05/24 03:37:42;;;;;;;8.00;2.55;;;;;;;12.03;28.54;98664.53;5030284;28;20029;-50
2022/05/24 03:40:09;;;;;;;6.97;2.45;;;;;;;11.94;28.41;98673.53;5031958;28;20030;-53
2022/05/24 03:42:36;;;;;;;8.02;2.85;;;;;;;11.86;28.83;98668.97;5032515;28;20067;-51
2022/05/24 03:45:03;;;;;;;7.70;2.92;;;;;;;11.82;29.24;98677.50;5031874;28;20040;-48
2022/05/24 03:47:29;;;;;;;6.53;2.42;;;;;;;11.76;29.07;98666.41;5021751;28;20029;-51
2022/05/24 03:49:54;;;;;;;10.55;3.30;;;;;;;11.75;28.91;98663.88;5031944;28;20032;-51
2022/05/24 03:52:19;;;;;;;5.55;2.80;;;;;;;11.76;29.15;98692.38;5030643;28;20480;-54
2022/05/24 03:54:45;;;;;;;4.35;2.75;;;;;;;11.74;29.09;98694.38;5031538;28;20160;-53
2022/05/24 03:59:54;;;;;;;7.78;2.95;;;;;;;11.71;29.91;98683.97;5031326;28;20045;-53
2022/05/24 04:02:20;;;;;;;7.47;3.00;;;;;;;11.68;29.14;98673.56;5031949;28;20045;-52
2022/05/24 04:04:45;;;;;;;5.95;2.67;;;;;;;11.67;29.24;98683.44;5031274;28;20033;-53
2022/05/24 04:07:11;;;;;;;7.18;2.50;;;;;;;11.67;29.39;98679.94;5031581;28;20457;-53
2022/05/24 04:09:36;;;;;;;8.20;3.28;;;;;;;11.67;29.21;98677.25;5031792;28;20096;-57
2022/05/24 04:12:03;;;;;;;6.82;2.78;;;;;;;11.68;29.84;98679.75;5031622;28;20061;-53
2022/05/24 04:14:29;;;;;;;9.30;2.88;;;;;;;11.77;29.44;98677.97;5031303;28;20033;-53
2022/05/24 04:16:55;;;;;;;16.42;3.10;;;;;;;11.94;29.62;98672.69;5031444;28;20025;-52
2022/05/24 04:19:21;;;;;;;8.23;2.90;;;;;;;11.99;29.69;98665.84;5031403;28;20044;-52
2022/05/24 04:21:47;;;;;;;5.95;2.72;;;;;;;12.24;28.94;98674.00;5031251;28;20033;-50
2022/05/24 04:24:12;;;;;;;4.60;3.17;;;;;;;12.60;28.23;98675.59;5031105;28;20414;-53
2022/05/24 04:26:38;;;;;;;7.13;2.70;;;;;;;12.91;27.14;98670.44;5030828;28;20025;-49
2022/05/24 04:29:03;;;;;;;3.72;2.35;;;;;;;13.13;25.51;98675.28;5029734;28;20447;-51
2022/05/24 04:31:29;;;;;;;7.50;2.38;;;;;;;13.33;24.84;98673.94;5030955;28;20034;-55
2022/05/24 04:33:55;;;;;;;6.43;2.15;;;;;;;13.39;24.55;98663.50;5031221;28;20071;-55
2022/05/24 04:36:21;;;;;;;9.18;2.10;;;;;;;13.43;24.46;98665.72;5030748;28;20045;-53
2022/05/24 04:38:46;;;;;;;7.05;1.98;;;;;;;13.37;24.26;98662.84;5030558;28;20037;-55
2022/05/24 04:43:56;;;;;;;4.13;1.73;;;;;;;13.78;22.55;98635.88;5030471;28;20031;-55
2022/05/24 04:46:22;;;;;;;4.88;1.80;;;;;;;14.39;21.86;98640.59;5031174;28;20029;-50
2022/05/24 04:48:47;;;;;;;2.30;1.85;;;;;;;15.16;20.71;98644.25;5030370;28;20447;-53
2022/05/24 04:51:12;;;;;;;2.92;1.77;;;;;;;16.16;19.55;98660.22;5030223;28;20048;-52
2022/05/24 04:53:38;;;;;;;5.13;2.25;;;;;;;17.02;18.88;98666.75;5030564;28;20049;-52
2022/05/24 04:56:04;;;;;;;6.13;1.90;;;;;;;17.45;18.17;98651.47;5030622;28;20045;-54
2022/05/24 04:58:30;;;;;;;5.65;2.35;;;;;;;17.76;17.73;98652.91;5027824;28;20045;-53
2022/05/24 05:00:55;;;;;;;1.95;1.73;;;;;;;17.61;16.98;98659.28;5025932;28;20030;-54
2022/05/24 05:03:22;;;;;;;3.35;1.98;;;;;;;17.58;17.49;98650.72;5029801;28;20405;-52
2022/05/24 05:05:49;;;;;;;8.65;2.00;;;;;;;17.67;17.42;98657.63;5030664;28;20373;-55
2022/05/24 05:08:16;;;;;;;4.57;2.03;;;;;;;17.19;17.31;98651.06;5021039;28;20084;-55
2022/05/24 05:10:41;;;;;;;5.63;1.90;;;;;;;16.89;18.05;98650.38;5030000;28;20461;-57
2022/05/24 05:13:07;;;;;;;2.78;2.08;;;;;;;16.67;18.38;98647.69;5031020;28;20041;-55
2022/05/24 05:15:35;;;;;;;7.05;1.85;;;;;;;16.33;18.23;98614.91;5029774;28;20033;-55
2022/05/24 05:18:10;;;;;;;5.93;2.10;;;;;;;16.55;18.57;98639.25;5031048;28;20149;-54
2022/05/24 05:20:39;;;;;;;;;;;;;;;16.94;19.03;98646.03;5030919;28;20021;-55
2022/05/24 05:23:16;;;;;;;3.90;1.80;;;;;;;16.58;17.89;98649.66;5030866;28;19913;-49
2022/05/24 05:25:43;;;;;;;3.90;1.50;;;;;;;16.60;17.47;98644.06;5030915;28;20485;-56
2022/05/24 05:28:09;;;;;;;4.13;1.75;;;;;;;16.85;17.26;98641.81;5030544;28;20440;-52
2022/05/24 05:33:18;;;;;;;4.93;1.70;;;;;;;17.61;15.72;98613.28;5030748;28;20025;-51
2022/05/24 05:35:46;;;;;;;16.33;1.90;;;;;;;18.14;15.83;98646.25;5030747;28;20527;-52
2022/05/24 05:38:12;;;;;;;13.30;1.90;;;;;;;18.29;15.65;98652.34;5030434;28;20056;-55
2022/05/24 05:40:38;;;;;;;7.15;2.33;;;;;;;18.27;15.36;98648.16;5030289;28;20123;-56
2022/05/24 05:43:03;;;;;;;4.10;1.70;;;;;;;17.78;15.73;98627.31;5030671;28;20095;-58
2022/05/24 05:45:29;;;;;;;4.68;1.75;;;;;;;17.53;16.36;98655.91;5030512;28;20478;-50
2022/05/24 05:47:55;;;;;;;3.58;1.65;;;;;;;17.26;16.44;98647.59;5029887;28;20030;-55
2022/05/24 05:50:21;;;;;;;4.90;1.50;;;;;;;17.04;16.97;98650.34;5029783;28;20029;-52
2022/05/24 05:52:47;;;;;;;3.05;1.75;;;;;;;17.04;17.27;98647.63;5030427;28;20056;-49
2022/05/24 05:55:13;;;;;;;7.28;2.10;;;;;;;17.01;17.18;98656.97;5030423;28;20133;-55
2022/05/24 05:57:40;;;;;;;6.82;1.92;;;;;;;17.03;17.34;98652.19;5029987;28;20030;-52
2022/05/24 06:00:08;;;;;;;6.90;1.90;;;;;;;17.13;17.17;98651.84;5029672;28;20034;-52
2022/05/24 06:02:35;;;;;;;3.85;1.98;;;;;;;17.25;17.54;98660.28;5029780;28;20037;-53
2022/05/24 06:05:00;;;;;;;6.68;1.85;;;;;;;17.33;16.98;98648.47;5030365;28;20079;-53
2022/05/24 06:07:26;;;;;;;6.25;1.92;;;;;;;17.27;17.35;98652.78;5029402;28;20030;-50
2022/05/24 06:09:51;;;;;;;2.00;1.70;;;;;;;17.06;17.43;98646.38;5027142;28;20033;-55
2022/05/24 06:12:17;;;;;;;5.65;1.70;;;;;;;16.91;17.95;98653.72;5025877;28;20068;-52
2022/05/24 06:14:42;;;;;;;5.25;1.85;;;;;;;16.55;17.63;98647.34;5012240;28;20041;-48
2022/05/24 06:17:08;;;;;;;4.60;1.63;;;;;;;16.15;18.27;98650.41;5021859;28;20053;-51
2022/05/24 06:19:33;;;;;;;5.05;1.80;;;;;;;15.97;18.54;98626.53;5022649;28;20029;-55
2022/05/24 06:21:59;;;;;;;5.35;1.95;;;;;;;16.12;17.98;98626.50;5033594;28;20029;-54
2022/05/24 06:24:24;;;;;;;3.55;1.98;;;;;;;16.24;18.48;98637.66;5033461;28;20040;-50
2022/05/24 06:26:50;;;;;;;6.82;2.13;;;;;;;16.38;17.66;98649.44;5032991;28;20033;-51
2022/05/24 06:29:17;;;;;;;4.07;1.77;;;;;;;16.58;17.91;98654.22;5031983;28;20021;-55
2022/05/24 06:31:44;;;;;;;3.58;1.70;;;;;;;16.75;17.33;98647.53;5033262;28;20030;-52
2022/05/24 06:34:11;;;;;;;2.60;1.80;;;;;;;16.89;17.52;98653.09;5033562;28;20126;-54
2022/05/24 06:36:37;;;;;;;3.95;1.92;;;;;;;17.10;17.18;98646.00;5033041;28;20393;-55
2022/05/24 06:39:03;;;;;;;5.57;2.20;;;;;;;17.35;17.54;98632.88;5032906;28;20034;-51
2022/05/24 06:41:28;;;;;;;3.50;2.40;;;;;;;17.96;16.82;98639.47;5032978;28;20041;-55
2022/05/24 06:43:53;;;;;;;4.00;1.80;;;;;;;18.43;16.40;98645.09;5032584;28;20080;-53
2022/05/24 06:46:19;;;;;;;5.32;1.98;;;;;;;19.48;15.52;98635.59;5032779;28;20040;-57
2022/05/24 06:48:44;;;;;;;5.10;1.92;;;;;;;20.62;14.54;98636.22;5032972;28;20112;-54
2022/05/24 06:51:13;;;;;;;3.55;2.00;;;;;;;21.51;13.89;98646.22;5032691;28;20365;-54
2022/05/24 06:53:40;;;;;;;3.22;1.90;;;;;;;21.39;13.75;98653.44;5032881;28;20034;-54
2022/05/24 06:56:06;;;;;;;9.98;2.20;;;;;;;20.95;13.94;98646.06;5032841;28;20095;-55
2022/05/24 06:58:33;;;;;;;6.47;2.08;;;;;;;20.40;13.89;98642.00;5032679;28;20112;-53
2022/05/24 07:03:42;;;;;;;6.32;2.10;;;;;;;19.33;15.09;98654.81;5033633;28;20029;-51
2022/05/24 07:06:07;;;;;;;8.15;2.30;;;;;;;18.73;15.26;98638.50;5032901;28;20152;-53
2022/05/24 07:08:33;;;;;;;7.45;3.00;;;;;;;18.78;14.48;98653.09;5030760;28;20163;-55
2022/05/24 07:10:58;;;;;;;7.10;2.90;;;;;;;18.70;14.54;98650.56;5032336;28;20033;-52
2022/05/24 07:13:24;;;;;;;5.53;2.50;;;;;;;18.45;14.54;98620.53;5024445;28;20128;-55
2022/05/24 07:15:50;;;;;;;5.00;2.40;;;;;;;18.51;14.54;98663.06;5032226;28;20045;-55
2022/05/24 07:18:15;;;;;;;5.65;2.58;;;;;;;18.08;14.94;98664.97;5031714;28;20109;-54
2022/05/24 07:20:41;;;;;;;5.75;2.53;;;;;;;17.73;15.50;98672.25;5032087;28;20030;-51
2022/05/24 07:23:08;;;;;;;3.17;1.70;;;;;;;17.44;15.62;98672.28;5032053;28;20156;-52
2022/05/24 07:25:35;;;;;;;8.55;2.03;;;;;;;17.56;16.37;98682.56;5030775;28;20569;-51
2022/05/24 07:28:02;;;;;;;3.90;1.90;;;;;;;17.54;16.45;98687.34;5032319;28;20025;-52
2022/05/24 07:30:27;;;;;;;12.20;2.55;;;;;;;17.22;17.32;98693.13;5031945;28;20079;-52
2022/05/24 07:32:53;;;;;;;8.85;2.40;;;;;;;16.59;18.66;98691.03;5031027;28;20033;-56
2022/05/24 07:35:18;;;;;;;5.45;2.33;;;;;;;16.04;19.66;98691.41;5031326;28;20033;-55
2022/05/24 07:37:44;;;;;;;5.07;2.08;;;;;;;15.92;19.71;98694.59;5030093;28;20040;-54
2022/05/24 07:45:48;;;;;;;5.38;2.05;;;;;;;14.84;21.61;98699.25;5032533;28;20103;-52
2022/05/24 07:48:14;;;;;;;8.40;2.47;;;;;;;14.70;22.38;98731.28;5032856;28;20086;-52
2022/05/24 07:50:39;;;;;;;6.38;2.55;;;;;;;14.35;23.60;98730.81;5032213;28;20116;-54
2022/05/24 07:53:05;;;;;;;11.48;2.10;;;;;;;13.97;24.83;98750.31;5032139;28;20036;-51
2022/05/24 07:55:31;;;;;;;5.78;1.90;;;;;;;13.69;25.49;98764.16;5031945;28;20045;-54
2022/05/24 07:58:00;;;;;;;5.88;1.90;;;;;;;13.58;25.70;98765.34;5032227;28;20065;-53
2022/05/24 08:00:25;;;;;;;8.52;2.15;;;;;;;13.47;26.33;98761.16;5032309;28;20033;-52
2022/05/24 08:02:52;;;;;;;7.55;1.90;;;;;;;13.50;26.40;98765.34;5032162;28;20026;-55
2022/05/24 08:05:18;;;;;;;6.95;2.00;;;;;;;13.61;26.51;98773.06;5032001;28;20140;-52
2022/05/24 08:07:49;;;;;;;6.57;1.90;;;;;;;13.59;26.56;98774.25;5031799;28;20048;-57
2022/05/24 08:10:15;;;;;;;8.07;1.92;;;;;;;13.46;27.17;98780.13;5032134;28;20033;-57
2022/05/24 08:12:41;;;;;;;9.23;2.17;;;;;;;13.18;27.54;98777.75;5031759;28;20124;-56
2022/05/24 08:15:08;;;;;;;7.45;2.20;;;;;;;12.89;28.13;98779.03;5031368;28;20108;-54
2022/05/24 08:17:34;;;;;;;5.80;2.08;;;;;;;12.69;28.47;98773.13;5031791;28;20045;-53
2022/05/24 08:20:00;;;;;;;6.18;2.10;;;;;;;12.49;29.13;98798.38;5031492;28;20574;-55
2022/05/24 08:22:25;;;;;;;5.80;2.22;;;;;;;12.38;29.88;98809.44;5031616;28;20057;-55
2022/05/24 08:24:51;;;;;;;8.65;2.20;;;;;;;12.27;29.72;98807.88;5031685;28;20037;-52
2022/05/24 08:27:16;;;;;;;8.13;1.90;;;;;;;12.26;30.03;98816.06;5031623;28;20088;-54
2022/05/24 08:29:44;;;;;;;9.60;2.00;;;;;;;12.26;30.21;98818.75;5031574;28;20083;-50
2022/05/24 08:32:11;;;;;;;5.65;2.20;;;;;;;12.20;30.51;98833.66;5031323;28;20374;-50
2022/05/24 08:34:38;;;;;;;5.93;1.80;;;;;;;12.10;30.97;98833.78;5031221;28;20425;-52
2022/05/24 08:37:04;;;;;;;10.90;2.45;;;;;;;12.00;31.50;98833.84;5030924;28;20033;-52
2022/05/24 08:39:30;;;;;;;7.20;2.53;;;;;;;11.91;31.42;98834.75;5031434;28;20467;-50
2022/05/24 08:41:55;;;;;;;6.25;2.50;;;;;;;11.84;31.54;98831.88;5031091;28;20556;-50
2022/05/24 08:50:08;;;;;;;6.85;2.72;;;;;;;12.24;31.60;98856.50;5031225;28;20029;-52
2022/05/24 08:52:38;;;;;;;7.25;2.95;;;;;;;12.45;30.77;98860.63;5031048;28;20033;-55
2022/05/24 08:55:05;;;;;;;10.65;3.10;;;;;;;12.42;31.15;98855.56;5030869;28;20481;-52
2022/05/24 08:57:42;;;;;;;7.57;2.67;;;;;;;12.34;31.21;98835.72;5013503;28;20041;-50
2022/05/24 09:00:16;;;;;;;5.30;2.50;;;;;;;12.63;30.93;98864.06;5031200;28;20108;-52
2022/05/24 09:02:45;;;;;;;8.90;2.55;;;;;;;12.74;30.79;98857.56;5030773;28;20042;-50
2022/05/24 09:05:24;;;;;;;9.48;2.60;;;;;;;13.05;30.17;98859.69;5031185;28;20037;-51
2022/05/24 09:07:58;;;;;;;7.55;2.15;;;;;;;13.17;29.80;98854.00;5031087;28;20420;-52
2022/05/24 09:10:39;;;;;;;6.00;2.55;;;;;;;12.99;30.03;98872.94;5030903;28;20057;-54
2022/05/24 09:13:10;;;;;;;11.38;3.08;;;;;;;12.92;30.05;98868.22;5030765;28;20034;-53
2022/05/24 09:16:15;;;;;;;5.72;2.50;;;;;;;13.09;29.65;98872.81;5031081;28;20045;-54
2022/05/24 09:18:58;;;;;;;4.03;2.40;;;;;;;13.34;29.05;98869.16;5030716;28;20041;-52
2022/05/24 09:21:28;;;;;;;12.05;2.30;;;;;;;13.48;29.42;98874.91;5031071;28;20105;-51
2022/05/24 09:24:24;;;;;;;6.10;2.85;;;;;;;13.83;28.57;98886.38;5031371;28;20029;-50
2022/05/24 09:27:08;;;;;;;12.73;3.20;;;;;;;14.56;27.84;98877.50;5031099;28;20108;-55
2022/05/24 09:29:54;;;;;;;8.10;2.38;;;;;;;14.98;27.43;98886.31;5030880;28;20116;-55
2022/05/24 09:32:21;;;;;;;8.70;3.17;;;;;;;15.52;26.56;98890.91;5019773;28;20549;-53
2022/05/24 09:35:03;;;;;;;7.15;2.67;;;;;;;15.99;25.88;98905.22;5031024;28;20026;-53
2022/05/24 09:37:29;;;;;;;9.18;3.28;;;;;;;15.72;26.00;98893.13;5030552;28;20034;-53
2022/05/24 09:40:02;;;;;;;12.07;2.80;;;;;;;15.21;26.67;98905.25;5030859;28;20072;-54
2022/05/24 09:42:36;;;;;;;15.77;2.63;;;;;;;14.75;27.59;98925.66;5030789;28;20033;-51
2022/05/24 09:45:15;;;;;;;7.00;2.40;;;;;;;14.24;28.18;98928.56;5030802;28;20128;-48
2022/05/24 09:47:43;;;;;;;4.47;2.30;;;;;;;13.66;29.16;98930.41;5030583;28;20029;-55
2022/05/24 09:50:17;;;;;;;5.32;2.30;;;;;;;13.31;29.53;98939.38;5034598;28;20465;-54
2022/05/24 09:53:03;;;;;;;4.05;2.35;;;;;;;13.22;29.08;98940.34;5034433;28;20387;-54
2022/05/24 09:55:59;;;;;;;8.00;2.83;;;;;;;13.00;30.02;98934.56;5034532;28;20064;-51
2022/05/24 09:58:38;;;;;;;7.85;2.60;;;;;;;12.81;30.36;98945.56;5034560;28;20056;-53
2022/05/24 10:01:09;;;;;;;5.18;2.58;;;;;;;12.61;31.00;98949.31;5034350;28;20075;-55
2022/05/24 10:03:41;;;;;;;6.97;2.53;;;;;;;12.67;30.76;98944.31;5034567;28;20032;-52
2022/05/24 10:06:09;;;;;;;8.93;2.17;;;;;;;12.82;30.58;98942.72;5034497;28;20116;-53
2022/05/24 10:08:47;;;;;;;3.53;2.50;;;;;;;12.96;30.10;98937.75;5034066;28;20047;-54
2022/05/24 10:11:22;;;;;;;8.52;2.28;;;;;;;13.02;30.18;98946.00;5033978;28;20056;-52
2022/05/24 10:14:04;;;;;;;6.53;2.17;;;;;;;12.92;30.39;98950.66;5034364;28;20469;-54
2022/05/24 10:16:51;;;;;;;7.63;1.98;;;;;;;12.77;30.87;98953.94;5033776;28;20037;-54
2022/05/24 10:19:24;;;;;;;3.35;2.40;;;;;;;12.57;31.16;98936.38;5033724;28;20086;-54
2022/05/24 10:22:01;;;;;;;4.90;2.67;;;;;;;12.77;31.39;98964.66;5033615;28;20045;-57
2022/05/24 10:24:45;;;;;;;7.20;2.33;;;;;;;12.54;31.84;98955.47;5034339;28;20029;-55
2022/05/24 10:27:17;;;;;;;4.55;2.30;;;;;;;12.52;31.51;98968.22;5033593;28;20033;-57
2022/05/24 10:29:47;;;;;;;7.57;2.40;;;;;;;12.53;31.65;98964.53;5033963;28;20041;-56
2022/05/24 10:38:32;;;;;;;6.78;2.10;;;;;;;12.14;31.87;98969.28;5026918;28;20077;-53
2022/05/24 10:41:11;;;;;;;6.68;2.38;;;;;;;11.80;32.31;98983.34;5033532;28;20156;-55
2022/05/24 10:43:56;;;;;;;10.18;2.55;;;;;;;11.57;33.31;98972.25;5032564;28;20480;-53
2022/05/24 10:46:49;;;;;;;2.45;1.63;;;;;;;11.60;32.59;98994.25;5033661;28;20393;-51
2022/05/24 10:49:21;;;;;;;6.97;2.60;;;;;;;11.58;33.01;98993.56;5033705;28;20032;-53
2022/05/24 10:52:06;;;;;;;2.88;2.20;;;;;;;11.71;32.66;98989.66;5033318;28;20501;-51
2022/05/24 10:54:40;;;;;;;8.30;1.95;;;;;;;11.89;32.13;98981.59;5033699;28;20045;-51
2022/05/24 10:57:12;;;;;;;10.18;2.33;;;;;;;12.38;31.69;98985.72;5033404;28;20167;-52
2022/05/24 10:59:55;;;;;;;6.88;2.35;;;;;;;12.99;30.64;98980.41;5032687;28;20346;-56
2022/05/24 11:02:45;;;;;;;8.98;2.80;;;;;;;13.53;30.46;98988.22;5033581;28;20045;-54
2022/05/24 11:05:27;;;;;;;7.32;2.08;;;;;;;13.99;29.17;98984.28;5031946;28;20318;-54
2022/05/24 11:08:01;;;;;;;4.18;2.42;;;;;;;14.29;28.56;98995.38;5030656;28;20090;-56
2022/05/24 11:10:30;;;;;;;4.75;2.15;;;;;;;14.41;28.25;99002.09;5025164;28;20076;-52
2022/05/24 11:13:01;;;;;;;4.53;1.95;;;;;;;14.33;28.05;98997.56;5031829;28;20026;-57
2022/05/24 11:15:36;;;;;;;7.97;2.25;;;;;;;14.23;28.34;98999.59;5030379;28;20549;-53
2022/05/24 11:18:09;;;;;;;3.67;2.08;;;;;;;13.81;28.57;98998.72;5032386;28;20029;-52
2022/05/24 11:20:39;;;;;;;3.83;1.60;;;;;;;13.41;29.11;98994.84;5032274;28;20064;-48
2022/05/24 11:23:05;;;;;;;5.90;1.90;;;;;;;12.82;29.91;99000.97;5032006;28;20033;-53
2022/05/24 11:25:36;;;;;;;3.38;1.60;;;;;;;12.53;30.49;99005.66;5031730;28;20045;-57
2022/05/24 11:28:04;;;;;;;8.05;1.95;;;;;;;12.26;31.11;98998.56;5032383;28;20061;-55
2022/05/24 11:30:30;;;;;;;3.22;1.60;;;;;;;11.97;31.46;99008.53;5032475;28;20044;-52
2022/05/24 11:33:07;;;;;;;3.63;2.00;;;;;;;11.90;31.44;99026.19;5032186;28;20037;-56
2022/05/24 11:35:39;;;;;;;8.00;1.83;;;;;;;11.73;32.10;99022.50;5030217;28;20115;-53
2022/05/24 11:38:23;;;;;;;6.93;2.65;;;;;;;11.83;32.05;99026.00;5032213;28;20087;-53
2022/05/24 11:40:54;;;;;;;7.88;2.08;;;;;;;11.87;32.36;99026.50;5030829;28;20128;-53
2022/05/24 11:43:35;;;;;;;6.05;1.90;;;;;;;12.05;31.59;99029.22;5031693;28;20073;-55
2022/05/24 11:46:30;;;;;;;2.63;1.60;;;;;;;12.24;31.43;99016.66;5031733;28;20461;-49
2022/05/24 11:48:56;;;;;;;6.13;1.95;;;;;;;12.52;30.90;99032.66;5031614;28;20124;-53
2022/05/24 11:51:44;;;;;;;8.90;1.73;;;;;;;12.71;30.67;99028.94;5031155;28;20026;-50
2022/05/24 11:54:18;;;;;;;7.50;2.28;;;;;;;12.53;31.01;99029.81;5031207;28;20073;-50
2022/05/24 11:57:02;;;;;;;9.02;1.80;;;;;;;12.33;31.08;99038.03;5030895;28;20048;-53
2022/05/24 11:59:40;;;;;;;6.18;1.70;;;;;;;12.09;31.52;99041.38;5031754;28;20048;-56
2022/05/24 12:02:32;;;;;;;7.65;2.00;;;;;;;12.02;31.78;99049.19;5030654;28;20038;-53
2022/05/24 12:08:37;;;;;;;4.85;1.40;;;;;;;12.60;30.55;99054.22;5029721;28;20038;-52
2022/05/24 12:11:05;;;;;;;7.57;1.40;;;;;;;12.96;29.79;99054.09;5028660;28;20071;-55
2022/05/24 12:13:51;;;;;;;4.32;1.60;;;;;;;13.16;29.43;99060.13;5030391;28;20658;-55
2022/05/24 12:16:46;;;;;;;2.70;1.58;;;;;;;13.21;29.23;99065.84;5031308;28;20037;-52
2022/05/24 12:19:40;;;;;;;6.30;1.40;;;;;;;13.27;29.13;99077.81;5031339;28;20088;-56
2022/05/24 12:22:12;;;;;;;3.08;1.42;;;;;;;13.31;29.12;99065.75;5031170;28;20038;-55
2022/05/24 12:24:40;;;;;;;3.60;1.48;;;;;;;13.49;28.98;99072.88;5030305;28;20037;-52
2022/05/24 12:27:15;;;;;;;4.72;1.52;;;;;;;13.70;28.71;99082.38;5031268;28;20121;-56
2022/05/24 12:29:47;;;;;;;4.47;1.27;;;;;;;13.67;28.38;99050.44;5031228;28;20037;-49
2022/05/24 12:32:17;;;;;;;3.67;1.58;;;;;;;13.75;28.57;99080.06;5030525;28;20160;-55
2022/05/24 12:34:42;;;;;;;3.63;0.98;;;;;;;13.43;28.55;99085.16;5031487;28;20115;-53